createdAt,value
2023-03-18T00:01:04.104Z,3.88
2023-03-18T00:03:33.862Z,3.60
2023-03-18T00:06:06.367Z,3.40
2023-03-18T00:08:33.899Z,3.03
2023-03-18T00:11:02.145Z,3.15
2023-03-18T00:13:29.382Z,2.78
2023-03-18T00:15:56.623Z,2.90
2023-03-18T00:18:23.643Z,3.08
2023-03-18T00:20:51.190Z,2.72
2023-03-18T00:23:18.158Z,3.17
2023-03-18T00:25:48.360Z,3.08
2023-03-18T00:28:17.881Z,3.17
2023-03-18T00:30:46.516Z,2.90
2023-03-18T00:33:13.638Z,3.00
2023-03-18T00:35:40.655Z,2.80
2023-03-18T00:38:09.115Z,3.55
2023-03-18T00:40:53.617Z,3.10
2023-03-18T00:43:29.711Z,2.90
2023-03-18T00:45:57.618Z,3.60
2023-03-18T00:48:25.204Z,3.13
2023-03-18T00:50:52.628Z,3.10
2023-03-18T00:53:19.993Z,3.92
2023-03-18T00:55:47.117Z,3.83
2023-03-18T00:58:14.395Z,3.10
2023-03-18T01:00:41.733Z,3.33
2023-03-18T01:03:09.529Z,3.28
2023-03-18T01:05:38.352Z,3.90
2023-03-18T01:08:05.741Z,3.67
2023-03-18T01:10:39.626Z,3.38
2023-03-18T01:13:06.745Z,3.33
2023-03-18T01:15:33.650Z,3.47
2023-03-18T01:18:01.397Z,3.42
2023-03-18T01:20:29.532Z,3.85
2023-03-18T01:22:57.032Z,3.72
2023-03-18T01:25:24.272Z,3.42
2023-03-18T01:27:51.258Z,3.95
2023-03-18T01:30:19.974Z,3.67
2023-03-18T01:32:47.944Z,3.72
2023-03-18T01:35:14.936Z,3.42
2023-03-18T01:37:42.241Z,3.53
2023-03-18T01:40:11.708Z,3.30
2023-03-18T01:42:39.082Z,3.20
2023-03-18T01:45:16.508Z,3.33
2023-03-18T01:47:44.889Z,3.20
2023-03-18T01:50:14.026Z,3.92
2023-03-18T01:52:43.713Z,3.30
2023-03-18T01:55:17.334Z,3.00
2023-03-18T01:57:45.537Z,3.45
2023-03-18T02:00:12.906Z,3.50
2023-03-18T02:02:41.034Z,3.60
2023-03-18T02:05:11.365Z,3.38
2023-03-18T02:07:41.204Z,3.35
2023-03-18T02:10:13.617Z,3.20
2023-03-18T02:12:44.890Z,3.58
2023-03-18T02:15:22.767Z,2.90
2023-03-18T02:17:59.825Z,3.72
2023-03-18T02:20:48.373Z,3.40
2023-03-18T02:23:33.516Z,3.13
2023-03-18T02:26:18.061Z,3.28
2023-03-18T02:28:47.113Z,3.63
2023-03-18T02:31:16.916Z,4.00
2023-03-18T02:33:44.729Z,3.75
2023-03-18T02:36:17.823Z,3.58
2023-03-18T02:38:46.484Z,4.13
2023-03-18T02:41:26.518Z,3.58
2023-03-18T02:43:54.004Z,3.42
2023-03-18T02:46:40.101Z,3.17
2023-03-18T02:49:08.788Z,3.92
2023-03-18T02:51:37.239Z,4.05
2023-03-18T02:54:10.612Z,4.15
2023-03-18T02:56:38.719Z,3.80
2023-03-18T02:59:06.201Z,3.80
2023-03-18T03:01:33.807Z,4.57
2023-03-18T03:04:01.911Z,4.15
2023-03-18T03:06:29.407Z,4.53
2023-03-18T03:08:57.392Z,5.30
2023-03-18T03:11:25.266Z,4.20
2023-03-18T03:13:52.343Z,4.60
2023-03-18T03:16:20.370Z,5.13
2023-03-18T03:18:47.631Z,5.20
2023-03-18T03:21:14.921Z,5.60
2023-03-18T03:23:44.866Z,5.13
2023-03-18T03:26:12.038Z,4.55
2023-03-18T03:28:38.918Z,4.55
2023-03-18T03:31:06.865Z,5.18
2023-03-18T03:33:33.681Z,5.82
2023-03-18T03:36:00.494Z,5.30
2023-03-18T03:38:27.367Z,5.50
2023-03-18T03:40:54.338Z,5.53
2023-03-18T03:43:21.430Z,5.18
2023-03-18T03:45:49.014Z,5.28
2023-03-18T03:48:15.872Z,5.03
2023-03-18T03:50:42.785Z,5.70
2023-03-18T03:53:10.516Z,5.28
2023-03-18T03:55:37.894Z,5.32
2023-03-18T03:58:04.751Z,5.78
2023-03-18T04:00:33.151Z,5.65
2023-03-18T04:03:00.236Z,6.25
2023-03-18T04:05:28.043Z,6.38
2023-03-18T04:07:55.597Z,5.47
2023-03-18T04:10:22.804Z,5.85
2023-03-18T04:12:50.289Z,6.40
2023-03-18T04:15:18.578Z,6.15
2023-03-18T04:17:45.944Z,6.28
2023-03-18T04:20:13.791Z,6.25
2023-03-18T04:22:41.807Z,6.55
2023-03-18T04:25:11.129Z,6.13
2023-03-18T04:27:38.835Z,5.85
2023-03-18T04:30:08.306Z,6.35
2023-03-18T04:32:35.401Z,6.93
2023-03-18T04:35:02.672Z,6.72
2023-03-18T04:37:29.596Z,6.90
2023-03-18T04:39:56.687Z,7.13
2023-03-18T04:42:23.454Z,7.57
2023-03-18T04:44:50.212Z,7.05
2023-03-18T04:47:17.077Z,6.53
2023-03-18T04:49:44.016Z,6.40
2023-03-18T04:52:11.289Z,6.95
2023-03-18T04:54:39.121Z,6.75
2023-03-18T04:57:06.801Z,6.88
2023-03-18T04:59:33.758Z,6.88
2023-03-18T05:02:00.760Z,6.75
2023-03-18T05:04:28.225Z,6.53
2023-03-18T05:06:55.082Z,7.20
2023-03-18T05:09:22.056Z,7.32
2023-03-18T05:11:48.839Z,6.82
2023-03-18T05:14:15.645Z,7.47
2023-03-18T05:16:43.226Z,7.65
2023-03-18T05:19:10.715Z,7.68
2023-03-18T05:21:38.265Z,7.78
2023-03-18T05:24:05.280Z,7.28
2023-03-18T05:26:32.083Z,8.63
2023-03-18T05:28:59.845Z,9.13
2023-03-18T05:31:26.967Z,8.10
2023-03-18T05:33:53.806Z,8.75
2023-03-18T05:36:20.692Z,9.23
2023-03-18T05:38:47.522Z,9.27
2023-03-18T05:41:14.384Z,9.07
2023-03-18T05:43:41.148Z,9.15
2023-03-18T05:46:08.217Z,8.48
2023-03-18T05:48:35.087Z,8.27
2023-03-18T05:51:01.946Z,8.70
2023-03-18T05:53:28.700Z,7.85
2023-03-18T05:55:56.471Z,8.63
2023-03-18T05:58:24.082Z,8.70
2023-03-18T06:00:50.967Z,8.65
2023-03-18T06:03:18.376Z,8.38
2023-03-18T06:05:45.239Z,7.88
2023-03-18T06:08:13.125Z,7.88
2023-03-18T06:10:40.282Z,8.13
2023-03-18T06:13:07.854Z,8.48
2023-03-18T06:15:34.878Z,7.72
2023-03-18T06:18:01.800Z,8.50
2023-03-18T06:20:28.879Z,7.85
2023-03-18T06:22:55.711Z,7.70
2023-03-18T06:25:23.373Z,7.68
2023-03-18T06:27:51.067Z,7.28
2023-03-18T06:30:18.947Z,7.93
2023-03-18T06:32:46.433Z,8.60
2023-03-18T06:35:13.593Z,7.97
2023-03-18T06:37:40.990Z,7.40
2023-03-18T06:40:09.557Z,8.15
2023-03-18T06:42:36.383Z,7.90
2023-03-18T06:45:03.941Z,6.95
2023-03-18T06:47:30.777Z,7.45
2023-03-18T06:49:57.979Z,7.28
2023-03-18T06:52:24.949Z,7.32
2023-03-18T06:54:51.994Z,7.25
2023-03-18T06:57:20.387Z,7.40
2023-03-18T06:59:48.052Z,7.32
2023-03-18T07:02:15.468Z,7.72
2023-03-18T07:04:42.674Z,6.68
2023-03-18T07:07:10.072Z,6.95
2023-03-18T07:09:36.886Z,7.00
2023-03-18T07:12:03.863Z,7.07
2023-03-18T07:14:30.764Z,7.13
2023-03-18T07:16:57.645Z,7.63
2023-03-18T07:19:24.854Z,6.80
2023-03-18T07:21:52.226Z,6.45
2023-03-18T07:24:21.545Z,6.88
2023-03-18T07:26:50.424Z,6.50
2023-03-18T07:29:18.083Z,6.38
2023-03-18T07:31:45.031Z,6.32
2023-03-18T07:34:15.423Z,6.57
2023-03-18T07:36:42.675Z,5.63
2023-03-18T07:39:11.157Z,6.50
2023-03-18T07:41:38.175Z,6.20
2023-03-18T07:44:06.824Z,6.32
2023-03-18T07:46:34.029Z,6.60
2023-03-18T07:49:01.180Z,6.50
2023-03-18T07:51:28.177Z,5.75
2023-03-18T07:53:55.280Z,5.60
2023-03-18T07:56:22.243Z,5.90
2023-03-18T07:58:49.035Z,5.80
2023-03-18T08:01:18.512Z,6.45
2023-03-18T08:03:46.733Z,5.72
2023-03-18T08:06:15.546Z,5.80
2023-03-18T08:08:43.088Z,4.50
2023-03-18T08:11:10.260Z,4.68
2023-03-18T08:13:38.827Z,4.93
2023-03-18T08:16:06.281Z,4.53
2023-03-18T08:18:33.124Z,4.90
2023-03-18T08:21:00.517Z,4.78
2023-03-18T08:23:27.404Z,5.32
2023-03-18T08:25:54.248Z,4.40
2023-03-18T08:28:21.077Z,5.28
2023-03-18T08:30:48.798Z,4.55
2023-03-18T08:33:16.057Z,4.82
2023-03-18T08:35:42.921Z,5.38
2023-03-18T08:38:10.308Z,4.35
2023-03-18T08:40:37.151Z,4.22
2023-03-18T08:43:07.516Z,4.18
2023-03-18T08:45:36.595Z,4.55
2023-03-18T08:48:03.624Z,4.00
2023-03-18T08:50:30.438Z,3.67
2023-03-18T08:52:58.460Z,4.15
2023-03-18T08:55:39.787Z,3.83
2023-03-18T08:58:07.777Z,4.07
2023-03-18T09:00:36.664Z,4.22
2023-03-18T09:03:04.460Z,4.28
2023-03-18T09:05:32.976Z,3.65
2023-03-18T09:08:00.438Z,3.50
2023-03-18T09:10:27.659Z,3.97
2023-03-18T09:12:54.411Z,3.78
2023-03-18T09:15:22.444Z,3.60
2023-03-18T09:18:08.020Z,4.32
2023-03-18T09:20:36.255Z,3.65
2023-03-18T09:23:04.046Z,3.35
2023-03-18T09:25:31.105Z,3.88
2023-03-18T09:27:58.167Z,3.80
2023-03-18T09:30:26.474Z,4.07
2023-03-18T09:32:54.090Z,4.15
2023-03-18T09:35:21.011Z,4.10
2023-03-18T09:37:48.440Z,3.70
2023-03-18T09:40:40.058Z,4.15
2023-03-18T09:43:25.917Z,4.20
2023-03-18T09:46:25.142Z,4.78
2023-03-18T09:49:30.359Z,4.85
2023-03-18T09:52:06.722Z,5.53
2023-03-18T09:54:43.405Z,4.22
2023-03-18T09:57:20.829Z,5.18
2023-03-18T09:59:57.492Z,5.70
2023-03-18T10:02:32.837Z,4.95
2023-03-18T10:05:05.667Z,4.80
2023-03-18T10:07:38.310Z,5.78
2023-03-18T10:10:30.282Z,5.30
2023-03-18T10:13:14.062Z,5.07
2023-03-18T10:15:46.293Z,5.80
2023-03-18T10:18:17.032Z,5.75
2023-03-18T10:21:07.040Z,7.10
2023-03-18T10:23:58.730Z,6.88
2023-03-18T10:26:53.030Z,8.25
2023-03-18T10:29:40.662Z,8.10
2023-03-18T10:32:39.148Z,10.55
2023-03-18T10:35:47.316Z,16.15
2023-03-18T10:38:30.814Z,14.35
2023-03-18T10:40:59.065Z,12.60
2023-03-18T10:43:30.641Z,12.85
2023-03-18T10:46:11.883Z,13.50
2023-03-18T10:48:42.362Z,13.63
2023-03-18T10:51:46.065Z,13.00
2023-03-18T10:54:32.632Z,13.00
2023-03-18T10:56:59.559Z,12.38
2023-03-18T10:59:28.631Z,11.93
2023-03-18T11:02:02.343Z,10.65
2023-03-18T11:04:32.764Z,8.48
2023-03-18T11:07:03.841Z,8.88
2023-03-18T11:09:37.002Z,8.68
2023-03-18T11:12:06.881Z,8.75
2023-03-18T11:14:37.389Z,8.82
2023-03-18T11:17:19.710Z,8.68
2023-03-18T11:19:48.879Z,8.13
2023-03-18T11:22:27.357Z,8.02
2023-03-18T11:25:16.549Z,7.32
2023-03-18T11:27:46.495Z,7.20
2023-03-18T11:30:34.387Z,8.00
2023-03-18T11:33:10.719Z,7.47
2023-03-18T11:35:40.787Z,6.78
2023-03-18T11:38:34.965Z,7.82
2023-03-18T11:41:23.154Z,7.40
2023-03-18T11:44:18.581Z,8.02
2023-03-18T11:47:03.969Z,6.82
2023-03-18T11:49:31.538Z,7.13
2023-03-18T11:52:34.930Z,6.70
2023-03-18T11:55:21.890Z,7.03
2023-03-18T11:58:10.498Z,5.85
2023-03-18T12:00:37.285Z,5.65
2023-03-18T12:03:41.946Z,5.53
2023-03-18T12:06:24.995Z,6.32
2023-03-18T12:08:57.119Z,5.38
2023-03-18T12:11:26.613Z,4.88
2023-03-18T12:14:22.628Z,5.20
2023-03-18T12:17:05.421Z,5.90
2023-03-18T12:19:58.877Z,5.57
2023-03-18T12:23:00.276Z,5.70
2023-03-18T12:26:00.877Z,5.45
2023-03-18T12:29:07.321Z,5.20
2023-03-18T12:31:39.981Z,6.18
2023-03-18T12:34:25.638Z,6.43
2023-03-18T12:37:34.380Z,5.60
2023-03-18T12:40:07.988Z,5.32
2023-03-18T12:42:58.411Z,5.30
2023-03-18T12:45:37.608Z,6.10
2023-03-18T12:48:42.444Z,6.20
2023-03-18T12:51:18.453Z,7.13
2023-03-18T12:53:52.464Z,5.95
2023-03-18T12:56:25.811Z,7.05
2023-03-18T12:58:57.066Z,6.78
2023-03-18T13:01:48.115Z,7.38
2023-03-18T13:04:27.019Z,7.43
2023-03-18T13:07:15.909Z,6.72
2023-03-18T13:09:52.771Z,7.03
2023-03-18T13:12:33.605Z,6.13
2023-03-18T13:15:02.604Z,5.90
2023-03-18T13:17:34.189Z,5.72
2023-03-18T13:20:04.806Z,5.00
2023-03-18T13:22:55.008Z,5.53
2023-03-18T13:25:49.575Z,6.22
2023-03-18T13:28:41.757Z,6.85
2023-03-18T13:31:16.698Z,5.20
2023-03-18T13:33:49.750Z,4.97
2023-03-18T13:37:04.109Z,5.43
2023-03-18T13:39:59.352Z,5.40
2023-03-18T13:42:29.967Z,4.95
2023-03-18T13:45:10.890Z,5.63
2023-03-18T13:47:42.878Z,5.47
2023-03-18T13:50:19.058Z,5.05
2023-03-18T13:52:47.874Z,5.13
2023-03-18T13:55:42.982Z,4.70
2023-03-18T13:58:16.343Z,4.85
2023-03-18T14:00:46.096Z,5.28
2023-03-18T14:03:23.213Z,5.65
2023-03-18T14:06:08.577Z,5.15
2023-03-18T14:08:47.367Z,5.22
2023-03-18T14:11:17.313Z,6.15
2023-03-18T14:13:50.821Z,4.68
2023-03-18T14:16:23.380Z,4.95
2023-03-18T14:19:00.367Z,5.05
2023-03-18T14:21:29.718Z,4.72
2023-03-18T14:24:19.316Z,4.68
2023-03-18T14:26:58.265Z,4.70
2023-03-18T14:29:26.647Z,5.55
2023-03-18T14:32:02.697Z,4.47
2023-03-18T14:34:33.263Z,4.45
2023-03-18T14:37:00.280Z,4.00
2023-03-18T14:39:33.420Z,4.15
2023-03-18T14:42:03.488Z,3.67
2023-03-18T14:44:43.531Z,4.20
2023-03-18T14:47:38.358Z,4.05
2023-03-18T14:50:21.387Z,3.92
2023-03-18T14:53:02.896Z,4.22
2023-03-18T14:55:35.518Z,3.97
2023-03-18T14:58:03.217Z,3.75
2023-03-18T15:00:36.645Z,4.32
2023-03-18T15:03:14.474Z,4.25
2023-03-18T15:05:43.446Z,4.28
2023-03-18T15:08:17.929Z,3.70
2023-03-18T15:10:51.689Z,4.15
2023-03-18T15:13:24.200Z,4.40
2023-03-18T15:15:54.952Z,4.88
2023-03-18T15:18:29.499Z,4.18
2023-03-18T15:21:24.187Z,5.72
2023-03-18T15:24:00.986Z,4.68
2023-03-18T15:26:36.142Z,4.28
2023-03-18T15:29:24.329Z,3.72
2023-03-18T15:31:51.899Z,3.33
2023-03-18T15:34:21.598Z,3.40
2023-03-18T15:36:56.732Z,3.35
2023-03-18T15:39:32.550Z,3.30
2023-03-18T15:42:00.722Z,3.00
2023-03-18T15:44:35.108Z,2.53
2023-03-18T15:47:20.918Z,3.05
2023-03-18T15:49:54.902Z,2.80
2023-03-18T15:52:27.899Z,3.10
2023-03-18T15:54:54.720Z,3.25
2023-03-18T15:57:33.228Z,3.22
2023-03-18T16:00:00.242Z,3.10
2023-03-18T16:02:28.721Z,2.60
2023-03-18T16:05:26.389Z,3.05
2023-03-18T16:07:53.934Z,2.80
2023-03-18T16:10:23.134Z,2.58
2023-03-18T16:12:57.913Z,3.10
2023-03-18T16:15:26.457Z,2.75
2023-03-18T16:17:54.879Z,3.15
2023-03-18T16:20:27.570Z,3.10
2023-03-18T16:22:54.546Z,2.90
2023-03-18T16:25:23.526Z,3.22
2023-03-18T16:27:53.899Z,3.38
2023-03-18T16:30:31.086Z,2.97
2023-03-18T16:32:58.824Z,2.50
2023-03-18T16:35:33.644Z,3.33
2023-03-18T16:38:01.129Z,2.97
2023-03-18T16:40:29.909Z,2.80
2023-03-18T16:42:57.913Z,4.50
2023-03-18T16:45:30.378Z,2.78
2023-03-18T16:48:03.270Z,3.15
2023-03-18T16:50:34.506Z,3.35
2023-03-18T16:53:04.304Z,2.67
2023-03-18T16:55:31.595Z,2.97
2023-03-18T16:58:03.139Z,3.35
2023-03-18T17:00:34.148Z,3.40
2023-03-18T17:03:01.816Z,2.95
2023-03-18T17:05:29.233Z,3.42
2023-03-18T17:07:56.156Z,4.13
2023-03-18T17:10:27.665Z,4.00
2023-03-18T17:13:05.865Z,3.73
2023-03-18T17:15:36.954Z,3.47
2023-03-18T17:18:11.970Z,3.80
2023-03-18T17:20:38.813Z,4.10
2023-03-18T17:23:05.888Z,3.97
2023-03-18T17:25:33.242Z,3.63
2023-03-18T17:28:07.036Z,4.22
2023-03-18T17:30:39.369Z,3.20
2023-03-18T17:35:46.890Z,4.30
2023-03-18T17:38:15.604Z,3.90
2023-03-18T17:40:43.162Z,3.58
2023-03-18T17:43:25.009Z,3.88
2023-03-18T17:45:51.943Z,3.60
2023-03-18T17:48:22.193Z,3.45
2023-03-18T17:50:51.172Z,3.88
2023-03-18T17:53:32.630Z,3.63
2023-03-18T17:56:00.017Z,6.82
2023-03-18T17:58:29.029Z,6.03
2023-03-18T18:01:06.210Z,8.00
2023-03-18T18:03:35.206Z,10.77
2023-03-18T18:06:03.492Z,12.27
2023-03-18T18:08:31.689Z,13.43
2023-03-18T18:11:17.742Z,10.63
2023-03-18T18:13:45.053Z,8.30
2023-03-18T18:16:12.276Z,9.77
2023-03-18T18:18:40.036Z,11.70
2023-03-18T18:21:14.610Z,10.77
2023-03-18T18:23:42.921Z,10.70
2023-03-18T18:26:13.642Z,11.00
2023-03-18T18:28:46.348Z,10.10
2023-03-18T18:31:14.620Z,11.95
2023-03-18T18:33:42.658Z,11.02
2023-03-18T18:36:09.935Z,10.38
2023-03-18T18:38:36.745Z,10.98
2023-03-18T18:41:03.818Z,11.10
2023-03-18T18:43:30.804Z,12.80
2023-03-18T18:45:59.536Z,13.05
2023-03-18T18:48:31.549Z,12.98
2023-03-18T18:50:59.399Z,16.13
2023-03-18T18:53:32.113Z,17.10
2023-03-18T18:56:01.356Z,17.75
2023-03-18T18:58:32.691Z,18.10
2023-03-18T19:01:00.786Z,15.93
2023-03-18T19:03:31.220Z,15.07
2023-03-18T19:06:00.960Z,14.57
2023-03-18T19:08:34.344Z,13.43
2023-03-18T19:11:04.281Z,13.30
2023-03-18T19:13:33.566Z,14.73
2023-03-18T19:16:08.426Z,12.50
2023-03-18T19:18:41.094Z,13.38
2023-03-18T19:21:08.233Z,13.30
2023-03-18T19:23:36.192Z,13.68
2023-03-18T19:26:05.186Z,13.75
2023-03-18T19:28:57.716Z,13.55
2023-03-18T19:31:30.340Z,13.85
2023-03-18T19:33:59.678Z,15.32
2023-03-18T19:36:30.508Z,16.98
2023-03-18T19:38:59.377Z,21.50
2023-03-18T19:41:26.826Z,19.27
2023-03-18T19:43:58.154Z,17.95
2023-03-18T19:46:32.515Z,17.17
2023-03-18T19:48:59.413Z,16.20
2023-03-18T19:51:26.454Z,17.42
2023-03-18T19:53:53.350Z,14.70
2023-03-18T19:56:28.715Z,16.65
2023-03-18T19:58:58.903Z,14.90
2023-03-18T20:01:27.138Z,14.88
2023-03-18T20:03:58.439Z,14.50
2023-03-18T20:06:26.357Z,13.60
2023-03-18T20:08:53.205Z,11.05
2023-03-18T20:11:23.292Z,11.43
2023-03-18T20:13:50.060Z,11.13
2023-03-18T20:16:19.462Z,9.95
2023-03-18T20:18:46.315Z,9.57
2023-03-18T20:21:27.143Z,11.18
2023-03-18T20:23:56.156Z,13.38
2023-03-18T20:26:23.175Z,14.15
2023-03-18T20:28:55.375Z,17.10
2023-03-18T20:31:22.586Z,16.23
2023-03-18T20:33:49.452Z,16.90
2023-03-18T20:36:19.829Z,18.75
2023-03-18T20:38:49.690Z,10.50
2023-03-18T20:41:18.052Z,7.22
2023-03-18T20:43:45.815Z,6.63
2023-03-18T20:46:14.406Z,6.43
2023-03-18T20:48:41.955Z,6.10
2023-03-18T20:51:21.264Z,5.20
2023-03-18T20:53:49.471Z,4.72
2023-03-18T20:56:16.943Z,4.93
2023-03-18T20:58:43.741Z,4.97
2023-03-18T21:01:13.800Z,5.18
2023-03-18T21:03:41.457Z,4.80
2023-03-18T21:06:16.397Z,5.38
2023-03-18T21:08:43.595Z,4.95
2023-03-18T21:11:21.690Z,4.53
2023-03-18T21:13:48.979Z,5.00
2023-03-18T21:16:16.875Z,4.80
2023-03-18T21:18:48.360Z,5.25
2023-03-18T21:21:25.069Z,5.60
2023-03-18T21:23:53.991Z,5.57
2023-03-18T21:26:22.563Z,4.63
2023-03-18T21:28:50.033Z,5.53
2023-03-18T21:31:32.868Z,4.50
2023-03-18T21:34:01.073Z,4.95
2023-03-18T21:36:28.014Z,4.45
2023-03-18T21:38:57.474Z,4.32
2023-03-18T21:41:28.034Z,4.15
2023-03-18T21:43:55.692Z,5.25
2023-03-18T21:46:28.595Z,5.13
2023-03-18T21:48:56.029Z,5.30
2023-03-18T21:51:38.465Z,5.38
2023-03-18T21:54:06.308Z,6.70
2023-03-18T21:56:33.225Z,8.00
2023-03-18T21:59:00.145Z,7.95
2023-03-18T22:01:32.196Z,7.32
2023-03-18T22:03:59.638Z,6.63
2023-03-18T22:06:26.846Z,5.82
2023-03-18T22:08:53.638Z,5.10
2023-03-18T22:11:24.908Z,5.32
2023-03-18T22:13:51.731Z,4.28
2023-03-18T22:16:18.989Z,5.40
2023-03-18T22:18:47.487Z,4.30
2023-03-18T22:21:25.012Z,4.70
2023-03-18T22:23:52.436Z,5.00
2023-03-18T22:26:20.698Z,4.93
2023-03-18T22:28:48.433Z,5.72
2023-03-18T22:31:21.683Z,5.68
2023-03-18T22:33:48.610Z,5.10
2023-03-18T22:36:17.302Z,4.10
2023-03-18T22:38:44.905Z,4.43
2023-03-18T22:41:21.264Z,4.78
2023-03-18T22:43:48.882Z,5.05
2023-03-18T22:46:16.235Z,5.30
2023-03-18T22:48:43.478Z,5.93
2023-03-18T22:51:26.132Z,5.07
2023-03-18T22:56:22.102Z,5.35
2023-03-18T22:58:49.256Z,5.75
2023-03-18T23:01:18.745Z,6.03
2023-03-18T23:03:47.423Z,5.55
2023-03-18T23:06:17.254Z,6.00
2023-03-18T23:08:45.708Z,5.47
2023-03-18T23:11:13.762Z,5.60
2023-03-18T23:13:43.230Z,5.13
2023-03-18T23:16:16.509Z,6.18
2023-03-18T23:18:43.468Z,5.25
2023-03-18T23:21:21.918Z,5.03
2023-03-18T23:23:49.588Z,4.47
2023-03-18T23:26:17.177Z,4.47
2023-03-18T23:28:45.300Z,4.55
2023-03-18T23:31:16.261Z,4.53
2023-03-18T23:33:43.478Z,4.97
2023-03-18T23:36:10.885Z,5.45
2023-03-18T23:38:38.108Z,5.30
2023-03-18T23:41:05.563Z,4.20
2023-03-18T23:43:32.342Z,4.28
2023-03-18T23:45:59.486Z,4.53
2023-03-18T23:48:26.329Z,4.78
2023-03-18T23:50:53.813Z,4.80
2023-03-18T23:53:20.866Z,5.18
2023-03-18T23:55:49.088Z,5.63
2023-03-18T23:58:16.223Z,5.03
